Time;durP1;ratioP1;P1;durP2;ratioP2;P2;SDS_P1;SDS_P2;PMS_P1;PMS_P2;Temp;Humidity;BMP_temperature;BMP_pressure;BME280_temperature;BME280_humidity;BME280_pressure;Samples;Min_cycle;Max_cycle;Signal;HPM_P1;HPM_P2
2023/02/22 00:01:49;;;;;;;26.48;21.52;;;12.40;96.70;;;;;;5084144;28;20031;-75
2023/02/22 00:04:20;;;;;;;25.88;21.25;;;12.40;96.70;;;;;;5098904;28;20150;-77
2023/02/22 00:06:48;;;;;;;22.42;19.95;;;12.40;96.70;;;;;;5092726;28;20674;-77
2023/02/22 00:09:19;;;;;;;24.50;21.50;;;12.40;96.70;;;;;;5091428;28;20519;-77
2023/02/22 00:11:49;;;;;;;25.92;21.00;;;12.40;96.70;;;;;;5100222;28;20100;-77
2023/02/22 00:14:26;;;;;;;23.92;21.33;;;12.40;96.70;;;;;;5081456;28;20052;-77
2023/02/22 00:16:58;;;;;;;;;;;12.40;96.70;;;;;;5092177;28;20047;-77
2023/02/22 00:19:29;;;;;;;25.63;20.50;;;12.40;96.70;;;;;;5082426;28;19924;-76
2023/02/22 00:21:58;;;;;;;22.75;19.60;;;12.40;96.70;;;;;;5098853;28;20039;-73
2023/02/22 00:24:28;;;;;;;24.02;20.20;;;12.40;96.70;;;;;;5100855;28;20048;-73
2023/02/22 00:26:58;;;;;;;25.98;20.85;;;12.40;96.70;;;;;;5101828;28;20067;-73
2023/02/22 00:29:27;;;;;;;22.90;20.35;;;12.40;96.70;;;;;;5101560;28;20063;-73
2023/02/22 00:31:55;;;;;;;24.65;19.38;;;12.40;96.70;;;;;;5096371;28;20424;-73
2023/02/22 00:34:25;;;;;;;23.63;20.35;;;12.40;96.70;;;;;;5101468;28;20896;-73
2023/02/22 00:36:53;;;;;;;24.20;19.95;;;12.30;96.70;;;;;;5077731;28;20089;-72
2023/02/22 00:39:22;;;;;;;25.45;19.63;;;12.30;96.70;;;;;;5096323;28;20040;-73
2023/02/22 00:41:50;;;;;;;26.83;20.90;;;12.40;96.70;;;;;;5086717;28;20048;-74
2023/02/22 00:44:20;;;;;;;24.83;20.77;;;12.40;96.70;;;;;;5101495;28;20044;-72
2023/02/22 00:46:49;;;;;;;23.80;20.20;;;12.40;96.70;;;;;;5098001;28;20062;-73
2023/02/22 00:49:18;;;;;;;23.80;20.00;;;12.40;96.70;;;;;;5083599;28;20043;-77
2023/02/22 00:51:46;;;;;;;22.73;20.17;;;12.30;96.70;;;;;;5101594;28;20771;-76
2023/02/22 00:54:17;;;;;;;24.13;19.70;;;12.30;96.70;;;;;;5100307;28;20067;-77
2023/02/22 00:56:57;;;;;;;22.15;19.27;;;12.40;96.70;;;;;;5094653;28;20554;-77
2023/02/22 00:59:29;;;;;;;24.33;19.92;;;12.30;96.70;;;;;;5100228;28;20051;-77
2023/02/22 01:01:58;;;;;;;23.50;19.27;;;12.30;96.70;;;;;;5093465;28;20140;-77
2023/02/22 01:04:41;;;;;;;25.13;20.20;;;12.30;96.70;;;;;;5098268;28;20135;-73
2023/02/22 01:07:12;;;;;;;25.52;19.63;;;12.30;96.70;;;;;;5098446;28;20050;-72
2023/02/22 01:09:43;;;;;;;24.25;19.33;;;12.30;96.70;;;;;;5079282;28;20076;-73
2023/02/22 01:12:12;;;;;;;24.42;19.70;;;12.30;96.70;;;;;;5089483;28;20051;-72
2023/02/22 01:14:42;;;;;;;23.27;20.20;;;12.30;96.70;;;;;;5098847;28;20048;-76
2023/02/22 01:17:10;;;;;;;19.88;17.23;;;12.30;96.70;;;;;;5099592;28;20055;-77
2023/02/22 01:19:41;;;;;;;24.02;19.25;;;12.30;96.70;;;;;;5087010;28;20092;-77
2023/02/22 01:22:09;;;;;;;21.33;17.98;;;12.30;96.70;;;;;;5092360;28;20053;-77
2023/02/22 01:24:38;;;;;;;20.85;17.13;;;12.30;96.70;;;;;;5100217;28;20138;-76
2023/02/22 01:27:06;;;;;;;22.17;17.60;;;12.30;96.70;;;;;;5083976;28;20063;-77
2023/02/22 01:29:34;;;;;;;19.02;16.10;;;12.30;96.70;;;;;;5102060;28;20039;-77
2023/02/22 01:32:05;;;;;;;19.30;15.65;;;12.30;96.70;;;;;;5095047;28;20079;-76
2023/02/22 01:34:34;;;;;;;19.08;16.63;;;12.30;96.70;;;;;;5102662;28;20075;-76
2023/02/22 01:37:02;;;;;;;18.60;15.63;;;12.30;96.70;;;;;;5076789;28;20558;-77
2023/02/22 01:39:31;;;;;;;20.00;15.80;;;12.30;96.70;;;;;;5085365;28;20108;-77
2023/02/22 01:41:59;;;;;;;19.15;16.02;;;12.30;96.70;;;;;;5097064;28;20048;-77
2023/02/22 01:44:30;;;;;;;20.40;16.75;;;12.20;96.70;;;;;;5100670;28;20047;-73
2023/02/22 01:47:00;;;;;;;19.33;16.55;;;12.20;96.70;;;;;;5084332;28;20058;-73
2023/02/22 01:49:34;;;;;;;21.02;16.02;;;12.20;96.70;;;;;;5094246;28;20044;-73
2023/02/22 01:52:07;;;;;;;19.20;16.55;;;12.20;96.70;;;;;;5086962;28;20052;-72
2023/02/22 01:54:38;;;;;;;20.73;15.30;;;12.20;96.70;;;;;;5092376;28;20100;-72
2023/02/22 01:57:13;;;;;;;21.20;16.50;;;12.10;96.70;;;;;;5078363;28;20082;-73
2023/02/22 01:59:47;;;;;;;19.60;16.55;;;12.20;96.70;;;;;;5093460;28;20071;-72
2023/02/22 02:02:17;;;;;;;18.65;15.55;;;12.10;96.70;;;;;;5080775;28;20043;-72
2023/02/22 02:04:48;;;;;;;21.08;15.82;;;12.10;96.70;;;;;;5103928;28;20058;-77
2023/02/22 02:07:19;;;;;;;21.20;16.48;;;12.10;96.70;;;;;;5089246;28;20865;-75
2023/02/22 02:09:56;;;;;;;23.45;16.70;;;12.10;96.70;;;;;;5090422;28;20051;-72
2023/02/22 02:12:26;;;;;;;20.48;15.90;;;12.10;96.70;;;;;;5069368;28;20040;-72
2023/02/22 02:15:18;;;;;;;18.95;15.55;;;12.10;96.70;;;;;;5097245;28;20144;-72
2023/02/22 02:17:47;;;;;;;22.08;16.27;;;12.10;96.70;;;;;;5101724;28;20039;-72
2023/02/22 02:20:25;;;;;;;24.85;16.85;;;12.10;96.70;;;;;;5103295;28;20039;-72
2023/02/22 02:23:05;;;;;;;22.48;16.98;;;12.10;96.70;;;;;;5085622;28;20059;-73
2023/02/22 02:25:55;;;;;;;20.92;17.38;;;12.10;96.70;;;;;;5089931;28;20053;-72
2023/02/22 02:28:53;;;;;;;21.17;16.85;;;12.10;96.70;;;;;;5077056;28;20121;-72
2023/02/22 02:32:05;;;;;;;20.88;17.15;;;12.10;96.70;;;;;;5098931;28;20128;-72
2023/02/22 02:34:38;;;;;;;21.30;16.90;;;12.10;96.70;;;;;;5092110;28;20040;-76
2023/02/22 02:37:11;;;;;;;20.33;16.30;;;12.10;96.70;;;;;;5096524;28;20042;-75
2023/02/22 02:39:45;;;;;;;22.30;17.42;;;12.10;96.70;;;;;;5092068;28;20667;-76
2023/02/22 02:42:21;;;;;;;19.80;16.80;;;12.20;96.70;;;;;;5096929;28;20483;-72
2023/02/22 02:44:54;;;;;;;21.15;16.38;;;12.20;96.70;;;;;;5082593;28;20043;-77
2023/02/22 02:47:27;;;;;;;22.38;16.75;;;12.20;96.70;;;;;;5083547;28;20055;-76
2023/02/22 02:50:00;;;;;;;19.42;16.33;;;12.20;96.70;;;;;;5077758;28;20135;-75
2023/02/22 02:52:32;;;;;;;21.38;17.77;;;12.10;96.70;;;;;;5093307;28;20853;-76
2023/02/22 02:55:03;;;;;;;20.25;17.10;;;12.10;96.70;;;;;;5101051;28;20694;-77
2023/02/22 02:57:31;;;;;;;19.45;16.67;;;12.10;96.70;;;;;;5101142;28;20051;-76
2023/02/22 02:59:59;;;;;;;20.92;16.85;;;12.10;96.70;;;;;;5090275;28;20134;-76
2023/02/22 03:02:43;;;;;;;22.25;16.67;;;12.10;96.70;;;;;;5081979;28;20044;-76
2023/02/22 03:05:24;;;;;;;16.80;14.60;;;12.10;96.70;;;;;;5072220;28;20071;-76
2023/02/22 03:08:00;;;;;;;17.40;14.07;;;12.10;96.70;;;;;;5078829;28;20044;-72
2023/02/22 03:10:43;;;;;;;18.05;13.68;;;12.10;96.70;;;;;;5083703;28;20208;-72
2023/02/22 03:13:18;;;;;;;17.05;13.40;;;12.10;96.70;;;;;;5098897;28;20518;-72
2023/02/22 03:15:52;;;;;;;16.58;14.00;;;12.10;96.70;;;;;;5097337;28;20424;-72
2023/02/22 03:18:28;;;;;;;15.75;14.02;;;12.00;96.70;;;;;;5100067;28;20062;-72
2023/02/22 03:21:03;;;;;;;17.58;15.30;;;12.00;96.70;;;;;;5070315;28;20238;-72
2023/02/22 03:23:36;;;;;;;19.17;14.93;;;12.00;96.70;;;;;;5092310;28;20044;-72
2023/02/22 03:26:08;;;;;;;18.08;14.38;;;12.00;96.70;;;;;;5100726;28;20075;-72
2023/02/22 03:28:40;;;;;;;18.40;14.60;;;12.00;96.70;;;;;;5102245;28;20082;-72
2023/02/22 03:31:14;;;;;;;17.65;13.85;;;12.00;96.70;;;;;;5102211;28;20052;-72
2023/02/22 03:33:49;;;;;;;15.50;13.23;;;12.00;96.70;;;;;;5099033;28;20057;-72
2023/02/22 03:36:23;;;;;;;17.52;13.65;;;12.00;96.70;;;;;;5097753;28;20525;-73
2023/02/22 03:38:56;;;;;;;16.52;13.20;;;12.00;96.70;;;;;;5084331;28;20048;-76
2023/02/22 03:41:27;;;;;;;18.08;14.90;;;12.00;96.70;;;;;;5097556;28;20071;-77
2023/02/22 03:44:00;;;;;;;14.55;12.30;;;12.00;96.70;;;;;;5096571;28;20070;-76
2023/02/22 03:46:31;;;;;;;16.52;12.60;;;12.00;96.70;;;;;;5085753;28;20400;-76
2023/02/22 03:49:08;;;;;;;15.88;12.73;;;12.00;96.70;;;;;;5092786;28;20051;-72
2023/02/22 03:51:39;;;;;;;15.88;13.27;;;12.00;96.70;;;;;;5092732;28;20048;-73
2023/02/22 03:54:15;;;;;;;16.80;13.02;;;12.00;96.70;;;;;;5102100;28;20039;-72
2023/02/22 03:56:52;;;;;;;15.23;12.10;;;12.00;96.70;;;;;;5085640;28;20047;-72
2023/02/22 03:59:26;;;;;;;17.35;13.90;;;12.00;96.70;;;;;;5074499;28;20063;-72
2023/02/22 04:01:55;;;;;;;17.00;13.60;;;12.00;96.70;;;;;;5081812;28;20047;-73
2023/02/22 04:04:25;;;;;;;18.48;13.80;;;12.00;96.70;;;;;;5095228;28;20071;-72
2023/02/22 04:06:53;;;;;;;16.48;13.88;;;12.00;96.70;;;;;;5090874;28;20118;-72
2023/02/22 04:09:26;;;;;;;16.92;13.82;;;12.00;96.70;;;;;;5085091;28;20079;-75
2023/02/22 04:11:55;;;;;;;14.68;13.05;;;12.00;96.70;;;;;;5084773;28;20481;-77
2023/02/22 04:14:23;;;;;;;15.40;12.32;;;12.00;96.70;;;;;;5097936;28;20440;-76
2023/02/22 04:16:51;;;;;;;14.52;13.00;;;12.00;96.70;;;;;;5082843;28;20036;-76
2023/02/22 04:19:19;;;;;;;17.90;14.20;;;12.00;96.70;;;;;;5098362;28;20048;-76
2023/02/22 04:21:52;;;;;;;15.93;12.98;;;12.00;96.70;;;;;;5101297;28;20048;-72
2023/02/22 04:24:24;;;;;;;16.52;14.55;;;12.00;96.70;;;;;;5094466;28;20561;-72
2023/02/22 04:26:54;;;;;;;16.92;13.35;;;12.00;96.70;;;;;;5096809;28;20054;-72
2023/02/22 04:29:23;;;;;;;17.23;14.02;;;12.00;96.70;;;;;;5099945;28;20059;-72
2023/02/22 04:31:51;;;;;;;18.40;14.13;;;12.10;96.70;;;;;;5092168;28;20048;-72
2023/02/22 04:34:19;;;;;;;17.10;14.18;;;12.10;96.70;;;;;;5100137;28;20050;-72
2023/02/22 04:36:48;;;;;;;17.20;15.00;;;12.00;96.70;;;;;;5090370;28;20043;-72
2023/02/22 04:39:18;;;;;;;17.85;15.15;;;12.00;96.70;;;;;;5087061;28;20041;-73
2023/02/22 04:41:46;;;;;;;19.25;15.13;;;12.00;96.70;;;;;;5091441;28;20040;-72
2023/02/22 04:44:16;;;;;;;16.92;15.15;;;12.00;96.70;;;;;;5067256;28;20048;-76
2023/02/22 04:46:45;;;;;;;17.45;14.90;;;12.00;96.70;;;;;;5073711;28;20044;-75
2023/02/22 04:49:15;;;;;;;20.05;15.32;;;12.00;96.70;;;;;;5100910;28;20791;-72
2023/02/22 04:51:45;;;;;;;18.45;15.10;;;12.00;96.70;;;;;;5100150;28;20121;-72
2023/02/22 04:54:16;;;;;;;19.30;15.98;;;12.00;96.70;;;;;;5099541;28;20361;-72
2023/02/22 04:56:48;;;;;;;21.58;15.80;;;12.00;96.70;;;;;;5091364;28;20044;-72
2023/02/22 04:59:16;;;;;;;21.15;16.50;;;12.00;96.70;;;;;;5097363;28;20130;-72
2023/02/22 05:01:47;;;;;;;18.83;16.23;;;12.00;96.70;;;;;;5110283;27;20457;-73
2023/02/22 05:04:15;;;;;;;18.08;15.05;;;12.00;96.70;;;;;;5094125;28;20048;-72
2023/02/22 05:06:43;;;;;;;17.95;15.38;;;12.00;96.70;;;;;;5098011;28;20134;-72
2023/02/22 05:09:11;;;;;;;17.48;14.45;;;12.00;96.70;;;;;;5102565;28;20062;-77
2023/02/22 05:11:39;;;;;;;15.32;13.48;;;12.00;96.70;;;;;;5073601;28;20412;-75
2023/02/22 05:14:08;;;;;;;14.98;13.32;;;12.00;96.70;;;;;;5092004;28;20043;-76
2023/02/22 05:16:36;;;;;;;16.70;13.43;;;11.90;96.70;;;;;;5084387;28;20062;-76
2023/02/22 05:19:05;;;;;;;17.08;13.48;;;12.00;96.70;;;;;;5101667;28;20130;-72
2023/02/22 05:21:33;;;;;;;15.40;13.15;;;12.00;96.70;;;;;;5096313;28;20044;-73
2023/02/22 05:24:01;;;;;;;14.90;13.02;;;12.00;96.70;;;;;;5095332;28;20523;-73
2023/02/22 05:26:32;;;;;;;17.60;13.02;;;11.90;96.70;;;;;;5100591;28;20401;-73
2023/02/22 05:29:00;;;;;;;15.57;13.10;;;11.90;96.70;;;;;;5090944;28;20048;-73
2023/02/22 05:31:30;;;;;;;14.00;12.38;;;11.90;96.70;;;;;;5097253;28;20048;-73
2023/02/22 05:33:58;;;;;;;14.98;13.13;;;11.80;96.70;;;;;;5078570;28;20135;-73
2023/02/22 05:36:26;;;;;;;17.60;13.68;;;11.90;96.70;;;;;;5100890;28;20610;-73
2023/02/22 05:38:55;;;;;;;16.85;14.23;;;11.90;96.70;;;;;;5101208;28;20461;-73
2023/02/22 05:41:23;;;;;;;16.90;14.02;;;11.90;96.70;;;;;;5084207;28;20578;-72
2023/02/22 05:43:51;;;;;;;17.10;14.05;;;11.90;96.70;;;;;;5099367;28;20044;-73
2023/02/22 05:46:19;;;;;;;15.35;13.65;;;11.90;96.70;;;;;;5097905;28;20043;-72
2023/02/22 05:48:49;;;;;;;14.63;13.02;;;11.90;96.70;;;;;;5094052;28;20035;-77
2023/02/22 05:51:18;;;;;;;15.73;12.48;;;11.80;96.70;;;;;;5099399;28;20058;-77
2023/02/22 05:53:47;;;;;;;13.95;12.30;;;11.80;96.70;;;;;;5078762;28;20068;-75
2023/02/22 05:56:20;;;;;;;15.93;12.70;;;11.80;96.70;;;;;;5073592;28;20050;-77
2023/02/22 05:58:49;;;;;;;15.90;12.60;;;11.80;96.70;;;;;;5071694;28;20459;-77
2023/02/22 06:01:17;;;;;;;14.43;12.63;;;11.90;96.70;;;;;;5081281;28;20036;-77
2023/02/22 06:03:47;;;;;;;13.80;11.82;;;11.90;96.70;;;;;;5082558;28;20044;-77
2023/02/22 06:06:17;;;;;;;15.25;12.65;;;11.80;96.70;;;;;;5063578;28;20048;-76
2023/02/22 06:08:48;;;;;;;16.77;13.18;;;11.90;96.70;;;;;;5075650;28;20056;-73
2023/02/22 06:11:18;;;;;;;16.80;13.02;;;11.80;96.70;;;;;;5058576;28;20067;-77
2023/02/22 06:13:50;;;;;;;14.07;12.50;;;11.80;96.70;;;;;;5075777;28;20037;-77
2023/02/22 06:16:20;;;;;;;13.43;12.02;;;11.80;96.70;;;;;;5083426;28;20036;-77
2023/02/22 06:18:49;;;;;;;14.38;12.45;;;11.80;96.70;;;;;;5093424;28;20039;-76
2023/02/22 06:21:47;;;;;;;14.50;12.40;;;11.90;96.70;;;;;;5086014;28;20048;-76
2023/02/22 06:24:15;;;;;;;17.52;12.88;;;11.90;96.70;;;;;;5101710;28;20047;-72
2023/02/22 06:26:43;;;;;;;15.60;13.00;;;11.90;96.70;;;;;;5093374;28;20048;-73
2023/02/22 06:29:12;;;;;;;14.95;11.90;;;11.90;96.70;;;;;;5089512;28;20055;-73
2023/02/22 06:31:43;;;;;;;19.10;15.00;;;11.90;96.70;;;;;;5098599;28;20058;-73
2023/02/22 06:34:12;;;;;;;16.35;14.18;;;11.90;96.70;;;;;;5086612;28;20071;-77
2023/02/22 06:36:42;;;;;;;14.48;12.13;;;11.90;96.70;;;;;;5085442;28;20045;-73
2023/02/22 06:39:10;;;;;;;18.95;13.85;;;11.90;96.70;;;;;;5070905;28;20067;-73
2023/02/22 06:41:38;;;;;;;18.52;14.95;;;12.00;96.70;;;;;;5067898;28;20498;-73
2023/02/22 06:44:07;;;;;;;16.90;14.32;;;12.00;96.70;;;;;;5067136;28;20127;-74
2023/02/22 06:46:35;;;;;;;18.40;14.95;;;12.00;96.70;;;;;;5077107;28;20032;-74
2023/02/22 06:49:04;;;;;;;18.35;15.43;;;12.00;96.70;;;;;;5100049;28;20052;-73
2023/02/22 06:51:35;;;;;;;20.25;16.60;;;12.00;96.70;;;;;;5089947;28;20042;-74
2023/02/22 06:54:05;;;;;;;19.05;16.10;;;12.00;96.70;;;;;;5089105;28;20063;-75
2023/02/22 06:56:33;;;;;;;20.02;14.95;;;12.00;96.70;;;;;;5096659;28;20050;-74
2023/02/22 06:59:01;;;;;;;19.08;15.00;;;12.00;96.70;;;;;;5086460;28;20054;-74
2023/02/22 07:01:30;;;;;;;21.73;14.52;;;12.00;96.70;;;;;;5089423;28;20032;-74
2023/02/22 07:03:58;;;;;;;18.73;15.43;;;12.00;96.70;;;;;;5088445;28;20617;-74
2023/02/22 07:06:26;;;;;;;19.10;15.25;;;12.00;96.70;;;;;;5099510;28;20044;-75
2023/02/22 07:08:55;;;;;;;20.83;15.95;;;12.00;96.70;;;;;;5103357;28;20607;-75
2023/02/22 07:11:24;;;;;;;19.45;15.40;;;12.00;96.70;;;;;;5090626;28;20150;-74
2023/02/22 07:13:54;;;;;;;19.98;15.98;;;12.00;96.70;;;;;;5087961;28;20097;-75
2023/02/22 07:16:22;;;;;;;19.63;15.75;;;12.00;96.70;;;;;;5093751;28;20099;-74
2023/02/22 07:18:50;;;;;;;19.48;16.48;;;12.00;96.70;;;;;;5086970;28;20062;-73
2023/02/22 07:21:18;;;;;;;23.40;15.52;;;12.00;96.70;;;;;;5084177;28;20051;-73
2023/02/22 07:23:51;;;;;;;21.90;15.38;;;12.00;96.70;;;;;;5095801;28;20759;-74
2023/02/22 07:26:20;;;;;;;17.95;14.63;;;12.00;96.70;;;;;;5097028;28;20058;-73
2023/02/22 07:28:50;;;;;;;15.63;12.98;;;12.00;96.70;;;;;;5100368;28;20046;-75
2023/02/22 07:31:18;;;;;;;19.75;15.07;;;12.00;96.70;;;;;;5101268;28;20104;-74
2023/02/22 07:33:47;;;;;;;18.35;14.18;;;12.00;96.70;;;;;;5082825;28;20040;-74
2023/02/22 07:36:16;;;;;;;17.75;13.35;;;12.00;96.70;;;;;;5099864;28;20119;-73
2023/02/22 07:38:45;;;;;;;21.50;15.13;;;12.00;96.70;;;;;;5099193;28;20051;-73
2023/02/22 07:41:13;;;;;;;21.33;15.85;;;12.00;96.70;;;;;;5091890;28;20047;-76
2023/02/22 07:43:42;;;;;;;21.98;17.90;;;12.00;96.70;;;;;;5102523;28;20044;-75
2023/02/22 07:46:11;;;;;;;21.13;16.25;;;12.10;96.70;;;;;;5084903;28;20450;-73
2023/02/22 07:48:39;;;;;;;18.80;15.13;;;12.10;96.70;;;;;;5104231;28;20158;-74
2023/02/22 07:51:08;;;;;;;20.80;16.23;;;12.10;96.70;;;;;;5102308;28;20057;-74
2023/02/22 07:53:37;;;;;;;20.90;14.65;;;12.10;96.70;;;;;;5102270;28;20058;-74
2023/02/22 07:56:07;;;;;;;20.65;16.67;;;12.10;96.70;;;;;;5102351;28;20050;-75
2023/02/22 07:58:35;;;;;;;21.13;16.67;;;12.20;96.70;;;;;;5084064;28;20062;-74
2023/02/22 08:01:04;;;;;;;19.65;15.95;;;12.20;96.70;;;;;;5081678;28;20636;-74
2023/02/22 08:03:35;;;;;;;18.15;15.25;;;12.20;96.70;;;;;;5081415;28;20067;-74
2023/02/22 08:06:05;;;;;;;17.77;15.85;;;12.20;96.70;;;;;;5093322;28;20059;-74
2023/02/22 08:08:34;;;;;;;19.10;15.95;;;12.30;96.70;;;;;;5102040;28;20055;-75
2023/02/22 08:11:02;;;;;;;19.42;16.45;;;12.30;96.70;;;;;;5099966;28;20050;-74
2023/02/22 08:13:32;;;;;;;17.38;15.50;;;12.30;96.70;;;;;;5077887;28;20141;-75
2023/02/22 08:16:01;;;;;;;17.48;15.25;;;12.30;96.70;;;;;;5102014;28;20154;-74
2023/02/22 08:18:29;;;;;;;17.85;15.88;;;12.40;96.70;;;;;;5085039;28;20054;-75
2023/02/22 08:20:58;;;;;;;19.30;15.40;;;12.40;96.70;;;;;;5092116;28;20044;-76
2023/02/22 08:23:27;;;;;;;17.92;15.43;;;12.40;96.70;;;;;;5073627;28;20102;-75
2023/02/22 08:25:55;;;;;;;18.42;15.85;;;12.50;96.70;;;;;;5094566;28;20045;-75
2023/02/22 08:28:24;;;;;;;17.50;14.88;;;12.50;96.70;;;;;;5101675;28;20912;-74
2023/02/22 08:30:52;;;;;;;16.27;14.57;;;12.60;96.70;;;;;;5096340;28;20126;-74
2023/02/22 08:33:21;;;;;;;18.23;14.70;;;12.70;96.70;;;;;;5080690;28;20508;-73
2023/02/22 08:35:50;;;;;;;18.60;15.88;;;12.70;96.70;;;;;;5069589;28;20070;-74
2023/02/22 08:38:23;;;;;;;18.00;16.08;;;12.80;96.70;;;;;;5097421;28;20112;-74
2023/02/22 08:40:51;;;;;;;19.33;15.55;;;12.80;96.70;;;;;;5102248;28;20043;-74
2023/02/22 08:43:37;;;;;;;18.70;15.05;;;12.80;96.70;;;;;;5069055;28;20082;-75
2023/02/22 08:46:06;;;;;;;18.15;15.57;;;12.90;96.70;;;;;;5090194;28;20520;-74
2023/02/22 08:48:33;;;;;;;16.85;15.00;;;13.00;96.70;;;;;;5097953;28;20394;-73
2023/02/22 08:51:02;;;;;;;16.63;14.77;;;12.90;96.70;;;;;;5099013;28;20042;-75
2023/02/22 08:53:31;;;;;;;16.08;14.32;;;13.00;96.70;;;;;;5099785;28;20070;-74
2023/02/22 08:55:59;;;;;;;18.58;14.48;;;13.10;96.70;;;;;;5091644;28;20401;-73
2023/02/22 08:58:27;;;;;;;16.38;14.68;;;13.10;96.70;;;;;;5101198;28;20068;-75
2023/02/22 09:00:55;;;;;;;16.83;15.02;;;13.10;96.70;;;;;;5090509;28;20047;-74
2023/02/22 09:03:23;;;;;;;15.57;13.90;;;13.20;96.70;;;;;;5092694;28;20040;-75
2023/02/22 09:05:52;;;;;;;17.40;14.07;;;13.20;96.70;;;;;;5092203;28;20542;-73
2023/02/22 09:08:20;;;;;;;17.23;13.77;;;13.20;96.70;;;;;;5100894;28;20109;-74
2023/02/22 09:10:50;;;;;;;15.90;14.13;;;13.30;96.70;;;;;;5101415;28;20381;-75
2023/02/22 09:13:18;;;;;;;16.58;13.40;;;13.40;96.70;;;;;;5092844;28;20055;-74
2023/02/22 09:15:46;;;;;;;18.77;14.75;;;13.40;96.70;;;;;;5091822;28;20048;-75
2023/02/22 09:18:14;;;;;;;18.55;14.80;;;13.50;96.70;;;;;;5101378;28;20124;-75
2023/02/22 09:20:42;;;;;;;18.55;15.07;;;13.50;96.70;;;;;;5091383;28;20040;-75
2023/02/22 09:23:10;;;;;;;17.48;14.90;;;13.50;96.70;;;;;;5100520;28;20036;-75
2023/02/22 09:25:39;;;;;;;16.83;14.10;;;13.50;96.70;;;;;;5100877;28;20039;-75
2023/02/22 09:28:09;;;;;;;17.08;14.27;;;13.50;96.70;;;;;;5094778;28;20062;-76
2023/02/22 09:30:37;;;;;;;17.33;14.63;;;13.60;96.70;;;;;;5099618;28;20078;-74
2023/02/22 09:33:11;;;;;;;16.70;14.88;;;13.60;96.70;;;;;;5091905;28;20493;-74
2023/02/22 09:35:41;;;;;;;16.40;14.25;;;13.70;96.70;;;;;;5101027;28;20054;-74
2023/02/22 09:38:10;;;;;;;17.15;15.35;;;13.80;96.70;;;;;;5099450;28;20052;-75
2023/02/22 09:40:43;;;;;;;15.38;13.48;;;14.00;96.70;;;;;;5100853;28;20934;-75
2023/02/22 09:43:32;;;;;;;16.30;14.15;;;14.10;96.70;;;;;;5073199;28;20110;-74
2023/02/22 09:46:19;;;;;;;17.23;13.80;;;14.20;96.70;;;;;;5097751;28;20040;-75
2023/02/22 09:49:02;;;;;;;21.42;13.63;;;14.40;96.70;;;;;;5100259;28;20043;-74
2023/02/22 09:51:36;;;;;;;14.38;12.88;;;14.50;96.70;;;;;;5087457;28;20059;-74
2023/02/22 09:54:13;;;;;;;16.02;13.07;;;14.60;96.70;;;;;;5106171;28;20374;-74
2023/02/22 09:56:45;;;;;;;12.30;10.50;;;14.70;96.70;;;;;;5102441;28;20054;-74
2023/02/22 09:59:21;;;;;;;14.50;10.90;;;14.80;96.70;;;;;;5087131;28;20156;-74
2023/02/22 10:01:57;;;;;;;14.68;11.35;;;14.80;96.70;;;;;;5098846;28;20047;-74
2023/02/22 10:04:38;;;;;;;13.00;10.87;;;15.00;96.70;;;;;;5097479;28;20139;-74
2023/02/22 10:07:17;;;;;;;12.13;10.93;;;15.00;96.70;;;;;;5092758;28;20047;-74
2023/02/22 10:09:47;;;;;;;14.00;10.60;;;15.10;96.70;;;;;;5096191;28;20059;-75
2023/02/22 10:12:24;;;;;;;13.88;10.93;;;15.00;96.70;;;;;;5083529;28;20052;-75
2023/02/22 10:15:10;;;;;;;;;;;14.90;96.70;;;;;;5098211;28;20048;-74
2023/02/22 10:17:51;;;;;;;12.07;10.55;;;14.90;96.70;;;;;;5103738;28;19930;-74
2023/02/22 10:20:36;;;;;;;11.35;10.07;;;15.00;96.70;;;;;;5094257;28;20239;-74
2023/02/22 10:23:13;;;;;;;11.57;10.38;;;15.10;96.70;;;;;;5080966;28;20039;-75
2023/02/22 10:25:44;;;;;;;11.85;9.60;;;15.30;96.70;;;;;;5098044;28;20109;-75
2023/02/22 10:28:17;;;;;;;11.70;9.82;;;15.40;96.70;;;;;;5088053;28;20067;-75
2023/02/22 10:30:54;;;;;;;12.45;9.55;;;15.40;96.70;;;;;;5084490;28;20467;-75
2023/02/22 10:33:29;;;;;;;10.05;8.88;;;15.40;96.70;;;;;;5085965;28;21323;-74
2023/02/22 10:35:57;;;;;;;11.57;9.30;;;15.20;96.70;;;;;;5092153;28;20049;-74
2023/02/22 10:38:28;;;;;;;11.43;9.63;;;15.20;96.70;;;;;;5102415;28;20054;-74
2023/02/22 10:41:00;;;;;;;11.73;9.57;;;15.20;96.70;;;;;;5094733;28;20051;-74
2023/02/22 10:43:29;;;;;;;10.23;9.05;;;15.20;96.70;;;;;;5090449;28;20047;-73
2023/02/22 10:46:01;;;;;;;9.40;8.40;;;15.20;96.70;;;;;;5093923;28;20462;-74
2023/02/22 10:48:34;;;;;;;12.75;10.27;;;15.20;96.70;;;;;;5098751;28;20054;-74
2023/02/22 10:51:07;;;;;;;13.13;9.50;;;15.10;96.70;;;;;;5085252;28;20528;-74
2023/02/22 10:53:37;;;;;;;11.02;9.60;;;15.10;96.70;;;;;;5086309;28;20052;-74
2023/02/22 10:56:08;;;;;;;13.02;10.65;;;15.10;96.70;;;;;;5083067;28;20557;-74
2023/02/22 10:58:45;;;;;;;11.05;9.88;;;15.10;96.70;;;;;;5092244;28;20090;-74
2023/02/22 11:01:35;;;;;;;12.48;9.88;;;15.10;96.70;;;;;;5091844;28;20756;-75
2023/02/22 11:04:11;;;;;;;11.82;9.85;;;15.20;96.70;;;;;;5081325;28;20047;-75
2023/02/22 11:06:43;;;;;;;11.75;10.10;;;15.20;96.70;;;;;;5084122;28;20459;-74
2023/02/22 11:09:16;;;;;;;13.35;9.90;;;15.20;96.70;;;;;;5093479;28;20044;-74
2023/02/22 11:11:46;;;;;;;12.38;9.80;;;15.20;96.70;;;;;;5101618;28;20844;-74
2023/02/22 11:14:25;;;;;;;11.60;10.32;;;15.20;96.70;;;;;;5102286;28;20416;-76
2023/02/22 11:16:55;;;;;;;14.13;9.98;;;15.20;96.70;;;;;;5098112;28;20079;-75
2023/02/22 11:19:27;;;;;;;16.58;9.32;;;15.10;96.70;;;;;;5076985;28;20047;-76
2023/02/22 11:22:08;;;;;;;12.70;9.70;;;15.10;96.70;;;;;;5091421;28;20051;-75
2023/02/22 11:24:45;;;;;;;13.18;10.80;;;15.00;96.70;;;;;;5095782;28;20043;-74
2023/02/22 11:27:30;;;;;;;16.92;11.13;;;15.00;96.70;;;;;;5086048;28;20059;-74
2023/02/22 11:30:24;;;;;;;14.43;11.25;;;15.00;96.70;;;;;;5087822;28;20044;-75
2023/02/22 11:32:55;;;;;;;16.58;12.45;;;15.00;96.70;;;;;;5092975;28;20048;-75
2023/02/22 11:35:38;;;;;;;17.95;12.70;;;14.90;96.70;;;;;;5079183;28;20047;-73
2023/02/22 11:38:19;;;;;;;16.98;12.23;;;14.90;96.70;;;;;;5100612;28;20043;-73
2023/02/22 11:41:14;;;;;;;20.55;13.02;;;14.80;96.70;;;;;;5101122;28;20135;-74
2023/02/22 11:43:45;;;;;;;16.88;12.32;;;14.80;96.70;;;;;;5078118;28;20485;-74
2023/02/22 11:46:19;;;;;;;14.65;10.95;;;14.80;96.70;;;;;;5084748;28;20040;-74
2023/02/22 11:48:57;;;;;;;14.90;11.50;;;14.80;96.70;;;;;;5099728;28;20038;-74
2023/02/22 11:51:52;;;;;;;13.10;9.10;;;14.80;96.70;;;;;;5079633;28;20039;-74
2023/02/22 11:54:51;;;;;;;13.35;9.27;;;14.80;96.70;;;;;;5080423;28;20048;-75
2023/02/22 11:57:30;;;;;;;11.82;8.98;;;14.80;96.70;;;;;;5075551;28;20497;-75
2023/02/22 12:00:23;;;;;;;10.95;9.45;;;14.80;96.70;;;;;;5084797;28;20501;-74
2023/02/22 12:03:39;;;;;;;13.55;10.10;;;14.80;96.70;;;;;;5076747;28;20047;-75
2023/02/22 12:06:26;;;;;;;14.77;10.60;;;14.80;96.70;;;;;;5082430;28;20173;-74
2023/02/22 12:09:12;;;;;;;13.25;10.93;;;14.80;96.70;;;;;;5091881;28;20051;-74
2023/02/22 12:11:56;;;;;;;13.93;11.07;;;14.80;96.70;;;;;;5101045;28;20123;-75
2023/02/22 12:14:33;;;;;;;14.02;10.48;;;14.90;96.70;;;;;;5079363;28;20745;-75
2023/02/22 12:17:25;;;;;;;15.30;11.65;;;14.90;96.70;;;;;;5095452;28;20075;-75
2023/02/22 12:19:59;;;;;;;19.25;13.18;;;14.90;96.70;;;;;;5092097;28;20078;-75
2023/02/22 12:22:33;;;;;;;17.83;13.68;;;14.90;96.70;;;;;;5090572;28;20220;-73
2023/02/22 12:25:13;;;;;;;17.35;14.30;;;14.90;96.70;;;;;;5081699;28;20052;-74
2023/02/22 12:27:48;;;;;;;18.88;14.02;;;14.90;96.70;;;;;;5087760;28;20051;-74
2023/02/22 12:30:22;;;;;;;21.00;14.95;;;14.90;96.70;;;;;;5087770;28;20050;-75
2023/02/22 12:32:53;;;;;;;17.92;14.60;;;14.90;96.70;;;;;;5099147;28;20047;-75
2023/02/22 12:35:24;;;;;;;21.58;16.38;;;14.90;96.70;;;;;;5091003;28;20089;-74
2023/02/22 12:38:00;;;;;;;18.77;15.95;;;14.90;96.70;;;;;;5088333;28;20052;-74
2023/02/22 12:40:36;;;;;;;18.63;16.60;;;14.90;96.70;;;;;;5090932;28;20092;-74
2023/02/22 12:43:15;;;;;;;21.25;17.90;;;14.90;96.70;;;;;;5096425;28;20048;-75
2023/02/22 12:45:49;;;;;;;19.95;17.60;;;14.80;96.70;;;;;;5098858;28;20046;-75
2023/02/22 12:48:30;;;;;;;21.48;17.95;;;14.90;96.70;;;;;;5100696;28;20044;-74
2023/02/22 12:51:03;;;;;;;24.05;19.83;;;14.90;96.70;;;;;;5074419;28;20547;-72
2023/02/22 12:53:37;;;;;;;24.55;19.25;;;15.00;96.70;;;;;;5095270;28;20054;-72
2023/02/22 12:56:19;;;;;;;19.50;14.82;;;15.00;96.70;;;;;;5096899;28;20044;-74